Time;durP1;ratioP1;P1;durP2;ratioP2;P2;SDS_P1;SDS_P2;PMS_P1;PMS_P2;Temp;Humidity;BMP_temperature;BMP_pressure;BME280_temperature;BME280_humidity;BME280_pressure;Samples;Min_cycle;Max_cycle;Signal;HPM_P1;HPM_P2
2021/12/05 00:24:19;;;;;;;4.57;3.83;;;9.10;89.20;;;;;;4967446;28;20219;-58
2021/12/05 00:26:53;;;;;;;5.40;4.03;;;9.10;89.10;;;;;;4975137;28;20207;-58
2021/12/05 00:29:27;;;;;;;3.97;3.22;;;9.20;89.00;;;;;;4975190;28;20196;-57
2021/12/05 00:32:02;;;;;;;5.43;4.00;;;9.20;88.90;;;;;;4975206;28;20175;-58
2021/12/05 00:45:34;;;;;;;6.65;4.93;;;9.10;90.00;;;;;;4975343;28;20216;-57
2021/12/05 00:55:57;;;;;;;4.63;4.18;;;9.60;88.20;;;;;;4974863;28;20175;-57
2021/12/05 01:17:20;;;;;;;5.35;4.32;;;9.50;88.70;;;;;;4966491;28;20683;-57
2021/12/05 01:19:47;;;;;;;4.65;3.75;;;9.50;88.50;;;;;;4975435;28;20196;-60
2021/12/05 01:22:15;;;;;;;5.00;3.80;;;9.60;88.80;;;;;;4975584;28;20231;-58
2021/12/05 01:29:55;;;;;;;5.47;4.28;;;9.40;89.30;;;;;;4974201;28;20219;-59
2021/12/05 01:37:45;;;;;;;4.57;3.55;;;9.30;90.10;;;;;;4974096;28;20648;-61
2021/12/05 01:44:09;;;;;;;3.58;3.10;;;9.50;90.00;;;;;;4974049;28;20168;-58
2021/12/05 02:41:20;;;;;;;3.10;2.50;;;9.30;90.40;;;;;;4992178;28;20176;-57
2021/12/05 02:43:56;;;;;;;3.53;2.20;;;9.40;90.40;;;;;;4991100;28;20409;-62
2021/12/05 02:46:24;;;;;;;2.67;2.35;;;9.40;90.30;;;;;;4992211;28;20184;-58
2021/12/05 02:48:50;;;;;;;4.80;2.70;;;9.40;90.30;;;;;;4987880;28;20200;-57
2021/12/05 02:51:22;;;;;;;4.13;2.50;;;9.40;90.30;;;;;;4987367;28;20180;-57
2021/12/05 02:53:54;;;;;;;4.35;3.10;;;9.30;90.40;;;;;;4987341;28;20566;-57
2021/12/05 02:56:23;;;;;;;5.13;3.25;;;9.40;90.40;;;;;;4980033;28;20187;-58
2021/12/05 02:58:52;;;;;;;5.60;3.10;;;9.40;90.50;;;;;;4979990;28;20232;-63
2021/12/05 03:01:34;;;;;;;3.85;2.88;;;9.40;90.30;;;;;;4978141;28;20191;-60
2021/12/05 03:04:01;;;;;;;4.47;3.03;;;9.50;90.30;;;;;;4976863;28;20204;-60
2021/12/05 03:06:31;;;;;;;2.90;2.22;;;9.50;90.10;;;;;;4976958;28;20192;-58
2021/12/05 03:09:01;;;;;;;4.57;2.90;;;9.50;90.20;;;;;;4976802;28;20591;-59
2021/12/05 03:11:29;;;;;;;4.40;3.17;;;9.50;90.20;;;;;;4976825;28;20644;-57
2021/12/05 03:13:55;;;;;;;6.68;3.60;;;9.40;90.30;;;;;;4976636;28;20684;-59
2021/12/05 03:16:22;;;;;;;5.35;3.00;;;9.40;90.40;;;;;;4976880;28;20172;-56
2021/12/05 03:18:48;;;;;;;3.00;2.58;;;9.40;90.50;;;;;;4976620;28;20267;-57
2021/12/05 03:21:15;;;;;;;2.40;2.20;;;9.40;90.40;;;;;;4976784;28;20576;-57
2021/12/05 03:23:43;;;;;;;2.88;2.55;;;9.40;90.30;;;;;;4976523;28;20219;-56
2021/12/05 03:26:14;;;;;;;4.70;3.13;;;9.40;90.40;;;;;;4976497;28;20176;-59
2021/12/05 03:28:41;;;;;;;5.05;3.47;;;9.30;90.50;;;;;;4976562;28;20200;-57
2021/12/05 03:31:07;;;;;;;6.22;2.70;;;9.40;90.60;;;;;;4976427;28;20221;-60
2021/12/05 03:33:35;;;;;;;2.88;2.15;;;9.40;90.60;;;;;;4976515;28;20172;-58
2021/12/05 03:36:02;;;;;;;2.00;1.85;;;9.40;90.60;;;;;;4976363;28;20186;-57
2021/12/05 03:38:28;;;;;;;4.65;2.60;;;9.30;90.60;;;;;;4976400;28;20223;-58
2021/12/05 03:40:54;;;;;;;7.80;3.80;;;9.40;90.70;;;;;;4976291;28;20176;-58
2021/12/05 03:43:20;;;;;;;4.10;2.53;;;9.40;90.60;;;;;;4976201;28;20671;-58
2021/12/05 03:45:53;;;;;;;2.25;2.05;;;9.50;90.60;;;;;;4976115;28;20184;-58
2021/12/05 03:48:21;;;;;;;5.55;2.50;;;9.40;90.60;;;;;;4976483;28;20251;-58
2021/12/05 03:50:48;;;;;;;3.08;2.17;;;9.40;90.70;;;;;;4976050;28;20183;-58
2021/12/05 03:53:15;;;;;;;3.17;2.72;;;9.50;90.70;;;;;;4976359;28;20657;-57
2021/12/05 03:55:45;;;;;;;4.50;2.50;;;9.50;90.50;;;;;;4974765;28;20188;-58
2021/12/05 03:58:11;;;;;;;2.95;2.40;;;9.60;90.20;;;;;;4976060;28;20203;-58
2021/12/05 04:00:40;;;;;;;3.58;2.50;;;9.60;90.20;;;;;;4975829;28;20655;-62
2021/12/05 04:03:09;;;;;;;3.67;2.50;;;9.50;90.50;;;;;;4975879;28;20180;-59
2021/12/05 04:05:35;;;;;;;3.22;2.40;;;9.50;90.50;;;;;;4974329;28;20226;-57
2021/12/05 04:08:06;;;;;;;3.00;2.50;;;9.60;90.40;;;;;;4975711;28;20169;-57
2021/12/05 04:10:31;;;;;;;4.30;2.40;;;9.60;90.50;;;;;;4975644;28;20236;-59
2021/12/05 04:12:57;;;;;;;3.58;2.47;;;9.50;90.50;;;;;;4975357;28;20231;-58
2021/12/05 04:15:23;;;;;;;2.88;2.22;;;9.60;90.50;;;;;;4975679;28;20187;-59
2021/12/05 04:17:49;;;;;;;2.88;2.50;;;9.50;90.50;;;;;;4975431;28;20263;-59
2021/12/05 04:20:16;;;;;;;3.88;2.20;;;9.50;90.60;;;;;;4975548;28;20183;-58
2021/12/05 04:22:42;;;;;;;2.28;1.88;;;9.50;90.60;;;;;;4975515;28;20219;-58
2021/12/05 04:25:10;;;;;;;2.30;2.10;;;9.50;90.60;;;;;;4975250;28;20215;-56
2021/12/05 04:27:38;;;;;;;1.90;1.67;;;9.50;90.70;;;;;;4975468;28;20636;-59
2021/12/05 04:30:07;;;;;;;3.78;1.70;;;9.50;90.60;;;;;;4975246;28;20203;-60
2021/12/05 04:32:32;;;;;;;2.42;1.80;;;9.60;90.70;;;;;;4975205;28;20180;-59
2021/12/05 04:34:58;;;;;;;1.77;1.35;;;9.60;90.90;;;;;;4975227;28;20174;-57
2021/12/05 04:37:24;;;;;;;1.65;1.55;;;9.70;90.50;;;;;;4975222;28;20184;-57
2021/12/05 04:39:51;;;;;;;2.08;1.63;;;9.80;90.30;;;;;;4975022;28;20242;-57
2021/12/05 04:42:17;;;;;;;1.52;1.20;;;9.70;90.20;;;;;;4975117;28;20183;-57
2021/12/05 04:44:43;;;;;;;1.40;1.30;;;9.70;90.30;;;;;;4974904;28;20220;-57
2021/12/05 04:47:10;;;;;;;1.35;1.30;;;9.70;90.30;;;;;;4975108;28;20541;-57
2021/12/05 04:49:39;;;;;;;2.97;1.92;;;9.70;90.50;;;;;;4974850;28;20208;-57
2021/12/05 04:52:05;;;;;;;2.10;1.90;;;9.80;90.40;;;;;;4975115;28;20183;-57
2021/12/05 04:54:31;;;;;;;2.95;2.25;;;9.80;90.30;;;;;;4974849;28;20176;-57
2021/12/05 04:56:57;;;;;;;2.55;2.17;;;9.70;90.30;;;;;;4974982;28;20271;-57
2021/12/05 04:59:25;;;;;;;8.15;1.80;;;9.80;90.30;;;;;;4974960;28;20279;-57
2021/12/05 05:01:54;;;;;;;1.60;1.50;;;9.70;90.40;;;;;;4974515;28;20275;-58
2021/12/05 05:04:26;;;;;;;2.53;1.30;;;9.70;90.30;;;;;;4974861;28;20303;-57
2021/12/05 05:06:54;;;;;;;5.20;2.75;;;9.60;90.50;;;;;;4974586;28;20188;-58
2021/12/05 05:09:20;;;;;;;3.55;2.80;;;9.60;90.80;;;;;;4974691;28;20315;-58
2021/12/05 05:11:46;;;;;;;3.65;2.47;;;9.60;90.90;;;;;;4974502;28;20652;-57
2021/12/05 05:14:13;;;;;;;3.55;2.60;;;9.70;90.70;;;;;;4974579;28;20168;-57
2021/12/05 05:16:40;;;;;;;3.88;2.92;;;9.70;90.60;;;;;;4974635;28;20695;-58
2021/12/05 05:19:05;;;;;;;3.42;2.65;;;9.70;90.60;;;;;;4974373;28;20576;-60
2021/12/05 05:24:18;;;;;;;5.25;2.90;;;9.70;90.80;;;;;;4974123;28;20239;-57
2021/12/05 05:27:10;;;;;;;4.05;2.50;;;9.70;90.80;;;;;;4974311;28;20278;-57
2021/12/05 05:48:31;;;;;;;1.75;1.65;;;9.90;90.70;;;;;;4974351;28;20196;-58
2021/12/05 05:50:57;;;;;;;2.95;1.75;;;9.90;90.60;;;;;;4974343;28;20192;-58
2021/12/05 05:53:24;;;;;;;1.90;1.80;;;9.80;90.60;;;;;;4974104;28;20226;-62
2021/12/05 05:55:49;;;;;;;1.50;1.40;;;9.80;90.80;;;;;;4974008;28;20184;-56
2021/12/05 05:58:18;;;;;;;2.20;2.00;;;9.90;90.80;;;;;;4974335;28;20678;-57
2021/12/05 06:01:04;;;;;;;1.60;1.50;;;9.90;90.70;;;;;;4974280;28;20184;-58
2021/12/05 06:03:31;;;;;;;1.92;1.42;;;9.80;90.70;;;;;;4974170;28;20183;-57
2021/12/05 06:05:58;;;;;;;1.27;0.98;;;9.80;90.80;;;;;;4974735;28;20231;-58
2021/12/05 06:08:27;;;;;;;0.98;0.98;;;9.90;90.80;;;;;;4974539;28;20196;-58
2021/12/05 06:10:59;;;;;;;1.90;0.88;;;10.00;90.60;;;;;;4974541;28;20184;-58
2021/12/05 06:13:26;;;;;;;1.20;1.10;;;10.00;90.40;;;;;;4974610;28;20172;-58
2021/12/05 06:15:52;;;;;;;1.73;1.63;;;10.10;90.40;;;;;;4974892;28;20203;-58
2021/12/05 06:18:17;;;;;;;1.75;1.60;;;10.10;90.40;;;;;;4973887;28;20911;-60
2021/12/05 06:20:44;;;;;;;2.45;1.48;;;10.10;90.40;;;;;;4973926;28;20272;-58
2021/12/05 06:23:12;;;;;;;1.05;1.05;;;10.20;90.30;;;;;;4973628;28;20208;-67
2021/12/05 06:25:41;;;;;;;1.42;1.33;;;10.20;90.10;;;;;;4973921;28;20288;-61
2021/12/05 06:28:13;;;;;;;1.60;1.50;;;10.20;90.20;;;;;;4973798;28;20201;-58
2021/12/05 06:41:51;;;;;;;2.78;2.58;;;10.10;90.20;;;;;;4977258;28;20191;-57
2021/12/05 06:47:02;;;;;;;3.55;2.38;;;10.10;90.40;;;;;;4977757;28;20272;-57
2021/12/05 06:49:28;;;;;;;2.60;2.40;;;10.00;90.50;;;;;;4977339;28;20208;-57
2021/12/05 06:51:54;;;;;;;3.08;2.88;;;9.90;90.70;;;;;;4977430;28;20179;-59
2021/12/05 06:54:22;;;;;;;2.70;2.50;;;10.00;90.90;;;;;;4978296;28;20180;-61
2021/12/05 06:56:48;;;;;;;3.20;2.90;;;10.00;90.90;;;;;;4981852;28;20195;-57
2021/12/05 06:59:13;;;;;;;3.05;2.65;;;9.90;90.90;;;;;;4983466;28;20200;-57
2021/12/05 07:01:40;;;;;;;4.43;2.55;;;10.00;90.80;;;;;;4981835;28;20220;-57
2021/12/05 07:04:23;;;;;;;3.40;2.88;;;10.10;90.60;;;;;;4977424;28;20671;-57
2021/12/05 07:06:49;;;;;;;4.80;3.53;;;10.10;90.50;;;;;;4976769;28;20272;-58
2021/12/05 07:09:15;;;;;;;2.97;2.67;;;10.20;90.40;;;;;;4976649;28;20307;-58
2021/12/05 07:17:07;;;;;;;1.88;1.73;;;10.20;90.50;;;;;;4976466;28;20652;-57
2021/12/05 07:22:23;;;;;;;2.67;2.45;;;10.30;90.20;;;;;;4976562;28;20172;-59
2021/12/05 07:24:54;;;;;;;2.97;2.40;;;10.40;90.00;;;;;;4976199;28;20691;-61
2021/12/05 07:43:58;;;;;;;4.47;2.80;;;10.90;88.40;;;;;;4967640;28;20228;-62
2021/12/05 07:46:24;;;;;;;8.55;3.55;;;10.90;88.40;;;;;;4975680;28;20176;-61
2021/12/05 07:48:50;;;;;;;9.35;5.38;;;10.90;88.60;;;;;;4975270;28;20200;-61
2021/12/05 07:54:08;;;;;;;8.98;6.03;;;10.70;89.80;;;;;;4975692;28;20176;-62
2021/12/05 07:56:57;;;;;;;31.67;18.98;;;10.90;88.00;;;;;;4975587;28;20189;-63
2021/12/05 08:16:08;;;;;;;9.40;4.13;;;11.30;85.30;;;;;;4975513;28;20222;-60
2021/12/05 08:18:35;;;;;;;7.93;3.35;;;11.30;85.40;;;;;;4974826;28;20279;-62
2021/12/05 08:21:03;;;;;;;9.73;4.30;;;11.20;85.80;;;;;;4974119;28;20197;-60
2021/12/05 08:23:28;;;;;;;7.88;3.50;;;11.10;86.20;;;;;;4974899;28;20200;-59
2021/12/05 08:26:06;;;;;;;7.32;3.13;;;11.10;87.10;;;;;;4975207;28;20644;-63
2021/12/05 09:31:01;;;;;;;5.97;4.95;;;9.30;86.90;;;;;;4973972;28;20214;-61
2021/12/05 10:38:22;;;;;;;16.05;10.82;;;9.30;85.50;;;;;;4961336;28;20187;-58
2021/12/05 10:43:43;;;;;;;9.75;6.13;;;9.10;86.30;;;;;;4966688;28;20563;-65
2021/12/05 10:46:12;;;;;;;10.68;7.35;;;9.20;86.20;;;;;;4958130;28;20248;-63
2021/12/05 10:48:45;;;;;;;13.82;8.30;;;9.10;85.50;;;;;;4957760;29;20244;-60
2021/12/05 10:51:18;;;;;;;12.98;8.80;;;8.80;87.50;;;;;;4957952;28;20205;-64
2021/12/05 10:53:48;;;;;;;16.02;6.82;;;8.70;87.70;;;;;;4957130;28;20192;-58
2021/12/05 10:56:25;;;;;;;11.80;6.82;;;8.80;87.80;;;;;;4957722;28;20184;-62
2021/12/05 10:59:01;;;;;;;11.93;7.63;;;9.00;87.60;;;;;;4957067;28;20550;-60
2021/12/05 11:01:34;;;;;;;10.82;8.18;;;9.10;87.40;;;;;;4957488;28;20633;-66
2021/12/05 11:04:02;;;;;;;20.27;12.88;;;9.20;87.30;;;;;;4957042;28;20701;-58
2021/12/05 11:06:39;;;;;;;22.55;12.70;;;9.20;86.60;;;;;;4957294;28;20353;-63
2021/12/05 11:09:18;;;;;;;20.20;10.68;;;8.90;86.40;;;;;;4957185;28;20800;-65
2021/12/05 11:11:48;;;;;;;8.77;5.85;;;9.00;87.30;;;;;;4957316;28;20216;-62
2021/12/05 11:14:20;;;;;;;9.82;5.07;;;9.10;86.40;;;;;;4957272;28;20247;-67
2021/12/05 11:16:59;;;;;;;7.03;5.35;;;9.10;86.00;;;;;;4957091;28;20169;-64
2021/12/05 11:19:29;;;;;;;7.22;5.30;;;9.40;84.50;;;;;;4957204;28;20228;-64
2021/12/05 11:22:03;;;;;;;7.05;4.60;;;9.40;83.20;;;;;;4956642;28;20181;-58
2021/12/05 11:24:41;;;;;;;7.20;5.25;;;9.30;83.60;;;;;;4956791;28;20239;-68
2021/12/05 11:27:12;;;;;;;7.72;5.75;;;9.30;84.10;;;;;;4956925;28;20184;-63
2021/12/05 11:30:16;;;;;;;9.93;5.82;;;9.30;85.20;;;;;;4956648;28;20744;-63
2021/12/05 11:32:54;;;;;;;10.85;7.10;;;9.40;85.60;;;;;;4954665;29;20200;-58
2021/12/05 11:35:25;;;;;;;8.05;5.63;;;9.40;85.30;;;;;;4955717;28;20235;-58
2021/12/05 11:38:15;;;;;;;9.00;6.43;;;9.30;85.40;;;;;;4957714;28;20184;-67
2021/12/05 11:40:55;;;;;;;5.50;4.95;;;9.20;85.40;;;;;;4959540;28;20181;-58
2021/12/05 11:43:27;;;;;;;9.88;6.30;;;9.10;85.20;;;;;;4971321;28;20192;-68
2021/12/05 11:46:18;;;;;;;8.98;7.15;;;9.10;86.60;;;;;;4959022;28;20443;-61
2021/12/05 11:48:50;;;;;;;8.25;5.88;;;9.10;86.20;;;;;;4966883;28;20625;-60
2021/12/05 11:51:32;;;;;;;9.50;6.50;;;9.10;85.90;;;;;;4974656;28;20177;-60
2021/12/05 11:54:10;;;;;;;9.45;6.63;;;9.20;84.50;;;;;;4963006;28;20173;-58
2021/12/05 11:56:35;;;;;;;10.43;7.00;;;9.20;84.40;;;;;;4961402;28;20647;-61
2021/12/05 11:59:21;;;;;;;15.68;7.95;;;9.30;84.50;;;;;;4974754;28;20275;-63
2021/12/05 12:01:53;;;;;;;9.27;6.53;;;9.30;83.90;;;;;;4970834;28;20183;-58
2021/12/05 12:04:24;;;;;;;7.90;6.10;;;9.20;84.90;;;;;;4974091;28;20215;-62
2021/12/05 12:07:11;;;;;;;8.15;5.47;;;9.20;84.90;;;;;;4965692;28;20192;-72
2021/12/05 12:09:37;;;;;;;7.97;5.47;;;9.10;84.40;;;;;;4973908;28;20232;-61
2021/12/05 12:12:03;;;;;;;9.05;5.40;;;9.20;84.00;;;;;;4962240;28;20560;-63
2021/12/05 12:14:29;;;;;;;9.10;6.35;;;9.10;84.00;;;;;;4970945;28;20674;-58
2021/12/05 12:16:57;;;;;;;10.85;6.85;;;8.90;85.20;;;;;;4962990;28;20185;-60
2021/12/05 12:19:23;;;;;;;8.73;6.68;;;9.00;85.30;;;;;;4977963;28;20679;-57
2021/12/05 12:21:52;;;;;;;8.27;6.63;;;9.10;85.40;;;;;;4977303;28;20215;-57
2021/12/05 12:24:19;;;;;;;16.90;7.38;;;9.10;85.10;;;;;;4977223;28;20208;-59
2021/12/05 12:26:45;;;;;;;13.88;7.78;;;9.30;86.60;;;;;;4974698;28;20255;-65
2021/12/05 12:29:12;;;;;;;15.68;9.45;;;9.40;85.80;;;;;;4974003;28;20302;-71
2021/12/05 12:31:41;;;;;;;15.07;9.25;;;9.50;84.10;;;;;;4974218;28;20230;-67
2021/12/05 12:34:10;;;;;;;12.52;8.05;;;9.30;84.00;;;;;;4961796;28;20184;-74
2021/12/05 12:36:59;;;;;;;12.35;7.60;;;9.30;84.00;;;;;;4972954;28;20629;-76
2021/12/05 12:39:38;;;;;;;12.60;7.05;;;9.30;84.40;;;;;;4963455;28;20282;-73
2021/12/05 12:42:23;;;;;;;15.02;8.30;;;9.30;84.60;;;;;;4973904;28;20176;-72
2021/12/05 12:45:01;;;;;;;15.70;8.73;;;9.40;84.70;;;;;;4964938;28;20224;-70
2021/12/05 12:47:34;;;;;;;16.60;8.63;;;9.30;84.70;;;;;;4971529;28;20238;-64
2021/12/05 12:50:19;;;;;;;13.95;8.40;;;9.10;85.50;;;;;;4974214;28;20284;-57
2021/12/05 12:52:58;;;;;;;14.40;8.45;;;9.00;85.90;;;;;;4973252;28;20619;-75
2021/12/05 12:55:27;;;;;;;11.63;8.32;;;9.10;85.70;;;;;;4973747;28;20308;-73
2021/12/05 12:57:53;;;;;;;11.98;8.65;;;9.10;85.40;;;;;;4973442;28;20548;-58
2021/12/05 13:00:23;;;;;;;11.80;8.90;;;9.20;85.90;;;;;;4972305;28;20184;-57
2021/12/05 13:11:20;;;;;;;15.45;8.93;;;9.10;85.60;;;;;;4975980;28;20211;-63
2021/12/05 13:13:57;;;;;;;13.38;8.90;;;9.20;85.50;;;;;;4969382;28;20192;-69
2021/12/05 13:16:28;;;;;;;11.43;8.32;;;9.10;85.20;;;;;;4965764;28;20180;-72
2021/12/05 13:19:06;;;;;;;9.13;7.80;;;9.10;85.60;;;;;;4979853;28;20208;-66
2021/12/05 13:21:38;;;;;;;13.27;8.65;;;9.10;85.60;;;;;;4966711;28;20180;-63
2021/12/05 13:24:25;;;;;;;10.98;8.30;;;9.10;85.50;;;;;;4976133;28;20672;-63
2021/12/05 13:27:13;;;;;;;12.98;8.07;;;9.10;84.90;;;;;;4973098;28;20677;-67
2021/12/05 13:29:51;;;;;;;11.32;7.75;;;9.00;84.80;;;;;;4968895;28;20231;-63
2021/12/05 13:32:25;;;;;;;26.17;15.18;;;9.10;85.10;;;;;;4972540;28;20188;-67
2021/12/05 13:35:00;;;;;;;19.45;12.07;;;9.20;85.90;;;;;;4972495;28;20723;-67
2021/12/05 13:37:30;;;;;;;70.22;34.85;;;9.30;85.20;;;;;;4972637;28;20204;-65
2021/12/05 13:40:16;;;;;;;69.80;37.85;;;9.40;85.80;;;;;;4972729;28;20688;-72
2021/12/05 13:42:53;;;;;;;59.20;31.33;;;9.60;86.10;;;;;;4972574;28;20187;-65
2021/12/05 13:45:25;;;;;;;62.22;37.13;;;9.70;85.90;;;;;;4964244;28;20211;-61
2021/12/05 13:47:51;;;;;;;14.98;11.32;;;9.80;85.40;;;;;;4965494;28;20184;-60
2021/12/05 13:50:22;;;;;;;13.48;9.70;;;9.60;83.60;;;;;;4972400;28;20176;-61
2021/12/05 13:53:03;;;;;;;12.68;8.30;;;9.30;84.30;;;;;;4965181;28;20203;-70
2021/12/05 13:55:41;;;;;;;3.72;2.83;;;9.20;84.20;;;;;;4972727;28;20235;-70
2021/12/05 13:58:45;;;;;;;5.43;2.85;;;9.30;79.00;;;;;;4960603;28;20219;-61
2021/12/05 14:01:11;;;;;;;4.35;1.20;;;9.20;79.00;;;;;;4969221;28;20274;-64
2021/12/05 14:03:49;;;;;;;3.33;1.23;;;9.00;76.10;;;;;;4966397;28;20272;-65
2021/12/05 14:06:53;;;;;;;1.33;0.90;;;8.80;75.80;;;;;;4966362;28;20187;-65
2021/12/05 14:09:44;;;;;;;1.00;0.93;;;8.50;77.30;;;;;;4959047;28;20231;-63
2021/12/05 14:12:27;;;;;;;0.93;0.82;;;8.40;80.60;;;;;;4972253;28;20199;-69
2021/12/05 14:14:56;;;;;;;1.33;0.80;;;8.50;79.30;;;;;;4963242;28;20556;-61
2021/12/05 14:17:23;;;;;;;0.63;0.63;;;8.50;79.50;;;;;;4969268;28;20199;-61
2021/12/05 14:19:53;;;;;;;0.65;0.63;;;8.40;78.50;;;;;;4972729;28;20208;-68
2021/12/05 14:22:22;;;;;;;1.23;0.70;;;8.50;79.00;;;;;;4971613;28;20180;-61
2021/12/05 14:24:51;;;;;;;4.35;1.25;;;8.60;75.90;;;;;;4972658;28;20254;-63
2021/12/05 14:27:21;;;;;;;0.98;0.60;;;8.70;75.40;;;;;;4972457;28;20180;-62
2021/12/05 14:29:50;;;;;;;1.92;0.60;;;8.60;75.30;;;;;;4959333;28;20219;-62
2021/12/05 14:32:22;;;;;;;0.50;0.50;;;8.70;74.90;;;;;;4972604;28;20520;-70
2021/12/05 14:35:16;;;;;;;1.85;0.60;;;8.60;75.10;;;;;;4978841;28;20195;-67
2021/12/05 14:37:45;;;;;;;0.50;0.43;;;8.50;74.70;;;;;;4983344;28;20193;-65
2021/12/05 14:40:20;;;;;;;0.40;0.40;;;8.50;73.60;;;;;;4971163;28;20193;-62
2021/12/05 14:42:49;;;;;;;1.10;0.50;;;8.30;73.10;;;;;;4954833;28;20275;-63
2021/12/05 14:45:22;;;;;;;0.75;0.35;;;8.30;73.80;;;;;;4967363;28;20323;-63
2021/12/05 14:47:49;;;;;;;1.38;0.60;;;8.30;73.70;;;;;;4972097;28;20546;-62
2021/12/05 14:50:19;;;;;;;0.30;0.30;;;8.40;73.30;;;;;;4972490;28;20247;-67
2021/12/05 14:52:54;;;;;;;0.88;0.45;;;8.30;74.20;;;;;;4972233;28;20283;-65
2021/12/05 14:55:22;;;;;;;0.90;0.40;;;8.10;75.10;;;;;;4959764;28;20184;-65
2021/12/05 14:57:51;;;;;;;0.28;0.28;;;8.10;73.70;;;;;;4973910;28;20184;-65
2021/12/05 15:00:23;;;;;;;0.35;0.35;;;8.20;74.50;;;;;;4974286;28;20555;-69
2021/12/05 15:02:49;;;;;;;1.10;0.60;;;8.10;73.80;;;;;;4975909;28;20243;-66
2021/12/05 15:05:18;;;;;;;0.85;0.40;;;8.10;72.80;;;;;;4971064;28;20223;-60
2021/12/05 15:07:45;;;;;;;0.30;0.30;;;8.10;74.30;;;;;;4966968;28;20176;-62
2021/12/05 15:10:19;;;;;;;0.63;0.50;;;8.20;73.60;;;;;;4977150;28;20219;-61
2021/12/05 15:12:45;;;;;;;0.93;0.40;;;8.00;73.80;;;;;;4965999;28;20172;-62
2021/12/05 15:15:12;;;;;;;0.38;0.38;;;8.00;74.00;;;;;;4977875;28;20234;-62
2021/12/05 15:17:41;;;;;;;0.30;0.30;;;8.10;72.00;;;;;;4971308;28;20649;-60
2021/12/05 15:20:20;;;;;;;0.43;0.40;;;8.10;73.50;;;;;;4968233;28;20211;-58
2021/12/05 15:22:55;;;;;;;0.20;0.20;;;8.00;72.60;;;;;;4962510;28;20543;-59
2021/12/05 15:25:27;;;;;;;0.55;0.35;;;7.90;72.20;;;;;;4974951;28;20220;-61
2021/12/05 15:27:53;;;;;;;2.10;1.05;;;8.00;72.00;;;;;;4975240;28;20176;-61
2021/12/05 15:30:30;;;;;;;0.63;0.38;;;7.80;73.00;;;;;;4974088;28;20203;-64
2021/12/05 15:33:00;;;;;;;1.95;0.40;;;7.80;73.00;;;;;;4967168;28;20187;-59
2021/12/05 15:35:26;;;;;;;0.65;0.45;;;7.70;72.80;;;;;;4974392;28;20331;-64
2021/12/05 15:37:52;;;;;;;0.32;0.32;;;7.70;71.50;;;;;;4965670;28;20189;-61
2021/12/05 15:40:19;;;;;;;0.60;0.28;;;7.70;72.80;;;;;;4963608;28;20199;-62
2021/12/05 15:42:46;;;;;;;0.50;0.50;;;7.80;72.00;;;;;;4972356;28;20192;-66
2021/12/05 15:45:14;;;;;;;0.65;0.47;;;7.80;72.00;;;;;;4975353;28;20208;-61
2021/12/05 15:47:43;;;;;;;0.35;0.30;;;7.60;73.10;;;;;;4975316;28;20204;-64
2021/12/05 15:50:09;;;;;;;0.98;0.60;;;7.70;71.10;;;;;;4974781;28;20204;-59
2021/12/05 15:52:38;;;;;;;0.60;0.30;;;7.70;72.10;;;;;;4975753;28;20183;-65
2021/12/05 15:55:12;;;;;;;0.63;0.50;;;7.80;71.60;;;;;;4975936;28;20188;-69
2021/12/05 15:57:41;;;;;;;0.43;0.30;;;7.80;70.40;;;;;;4975887;28;20197;-70
2021/12/05 16:00:22;;;;;;;1.05;0.68;;;7.70;70.60;;;;;;4975788;28;20251;-64
2021/12/05 16:02:55;;;;;;;0.98;0.50;;;7.60;70.40;;;;;;4975575;28;20516;-71
2021/12/05 16:05:24;;;;;;;0.52;0.40;;;7.70;71.10;;;;;;4975710;28;20219;-71
2021/12/05 16:07:50;;;;;;;0.40;0.40;;;7.60;70.30;;;;;;4960965;28;20272;-63
2021/12/05 16:10:20;;;;;;;0.60;0.30;;;7.60;70.80;;;;;;4955108;28;20651;-63
2021/12/05 16:12:48;;;;;;;0.88;0.50;;;7.70;69.30;;;;;;4956330;28;20181;-62
2021/12/05 16:15:16;;;;;;;0.30;0.30;;;7.60;70.50;;;;;;4956453;28;20546;-60
2021/12/05 16:17:50;;;;;;;0.45;0.45;;;7.70;68.80;;;;;;4956267;28;20185;-68
2021/12/05 16:20:40;;;;;;;0.45;0.45;;;7.70;69.20;;;;;;4955633;28;20209;-60
2021/12/05 16:23:19;;;;;;;0.55;0.55;;;7.60;70.40;;;;;;4953181;29;20189;-60
2021/12/05 16:26:05;;;;;;;0.45;0.32;;;7.60;69.30;;;;;;4955994;28;20267;-62
2021/12/05 16:28:38;;;;;;;0.30;0.30;;;7.50;69.60;;;;;;4951859;28;20209;-60
2021/12/05 16:31:11;;;;;;;0.45;0.30;;;7.50;69.30;;;;;;4956052;28;20219;-74
2021/12/05 16:33:37;;;;;;;1.00;1.00;;;7.50;69.60;;;;;;4969156;28;20193;-64
2021/12/05 16:36:05;;;;;;;0.30;0.30;;;7.60;69.40;;;;;;4971034;28;20188;-69
2021/12/05 16:38:35;;;;;;;0.77;0.50;;;7.50;69.30;;;;;;4963812;28;20219;-61
2021/12/05 16:41:25;;;;;;;0.52;0.40;;;7.40;68.50;;;;;;4972800;28;20606;-62
2021/12/05 16:44:03;;;;;;;0.32;0.32;;;7.40;68.70;;;;;;4973267;28;20196;-63
2021/12/05 16:46:36;;;;;;;0.30;0.30;;;7.50;67.90;;;;;;4971856;28;20242;-60
2021/12/05 16:49:09;;;;;;;0.28;0.28;;;7.50;68.40;;;;;;4969874;28;20699;-65
2021/12/05 16:51:43;;;;;;;0.47;0.47;;;7.60;68.00;;;;;;4972998;28;20184;-64
2021/12/05 16:54:16;;;;;;;6.55;2.63;;;7.60;68.10;;;;;;4972916;28;20194;-65
2021/12/05 16:57:01;;;;;;;0.68;0.55;;;7.60;68.50;;;;;;4973362;28;20303;-62
2021/12/05 16:59:27;;;;;;;1.08;0.80;;;7.60;67.60;;;;;;4972852;28;20200;-70
2021/12/05 17:02:14;;;;;;;0.85;0.55;;;7.50;68.50;;;;;;4971445;28;20531;-59
2021/12/05 17:05:05;;;;;;;0.45;0.40;;;7.50;67.40;;;;;;4973952;28;20204;-58
2021/12/05 17:07:43;;;;;;;1.05;0.80;;;7.60;67.70;;;;;;4974258;28;20187;-60
2021/12/05 17:10:21;;;;;;;0.75;0.75;;;7.60;67.20;;;;;;4973715;28;20727;-65
2021/12/05 17:13:11;;;;;;;1.73;1.50;;;7.50;67.70;;;;;;4974534;28;20184;-66
2021/12/05 17:15:47;;;;;;;1.67;1.10;;;7.50;67.30;;;;;;4973351;28;20196;-69
2021/12/05 17:18:26;;;;;;;0.80;0.80;;;7.50;66.70;;;;;;4973433;28;20211;-58
2021/12/05 17:20:58;;;;;;;0.93;0.70;;;7.60;66.60;;;;;;4972949;28;20180;-67
2021/12/05 17:23:58;;;;;;;4.32;3.92;;;7.50;67.80;;;;;;4973545;28;20184;-65
2021/12/05 17:26:33;;;;;;;1.10;1.00;;;7.40;67.10;;;;;;4973552;28;20184;-56
2021/12/05 17:29:06;;;;;;;0.70;0.70;;;7.70;67.00;;;;;;4973356;28;20667;-68
2021/12/05 17:31:45;;;;;;;0.95;0.75;;;7.60;66.60;;;;;;4973286;28;20176;-60
2021/12/05 17:34:24;;;;;;;3.40;2.67;;;7.70;66.00;;;;;;4973300;28;20172;-60
2021/12/05 17:36:58;;;;;;;3.70;2.83;;;7.80;66.00;;;;;;4972638;28;20180;-59
2021/12/05 17:39:27;;;;;;;1.02;0.93;;;7.90;65.60;;;;;;4973875;28;20581;-59
2021/12/05 17:41:57;;;;;;;1.08;0.65;;;7.90;64.50;;;;;;4972442;28;20203;-65
2021/12/05 17:44:24;;;;;;;0.57;0.57;;;7.80;64.80;;;;;;4974492;28;20208;-68
2021/12/05 17:46:52;;;;;;;0.80;0.80;;;7.80;65.20;;;;;;4973497;28;20284;-65
2021/12/05 17:49:20;;;;;;;0.40;0.40;;;7.80;64.50;;;;;;4971292;28;20200;-64
2021/12/05 17:51:46;;;;;;;0.40;0.40;;;7.70;64.10;;;;;;4972701;28;20235;-60
2021/12/05 17:54:22;;;;;;;0.30;0.30;;;7.70;64.70;;;;;;4972589;28;20184;-63
2021/12/05 17:56:53;;;;;;;0.40;0.38;;;7.70;64.80;;;;;;4972372;28;20547;-67
2021/12/05 18:04:34;;;;;;;0.52;0.52;;;8.10;64.50;;;;;;4973818;28;20214;-63
2021/12/05 18:07:00;;;;;;;2.05;0.60;;;8.20;63.30;;;;;;4973556;28;20699;-62
2021/12/05 18:09:27;;;;;;;1.58;0.90;;;8.00;63.50;;;;;;4972612;28;20246;-59
2021/12/05 18:11:52;;;;;;;0.30;0.30;;;7.90;63.20;;;;;;4972362;28;20212;-73
2021/12/05 18:14:19;;;;;;;0.70;0.50;;;8.00;62.50;;;;;;4971521;28;20180;-60
2021/12/05 18:16:45;;;;;;;0.73;0.73;;;7.90;63.10;;;;;;4962418;28;20566;-60
2021/12/05 18:19:15;;;;;;;0.30;0.30;;;7.90;63.30;;;;;;4953022;28;20208;-71
2021/12/05 18:21:43;;;;;;;0.60;0.40;;;7.80;63.90;;;;;;4956858;28;20553;-61
2021/12/05 18:24:12;;;;;;;0.40;0.40;;;7.80;62.90;;;;;;4955450;28;20272;-63
2021/12/05 18:26:40;;;;;;;0.68;0.60;;;7.70;62.70;;;;;;4956729;28;20187;-62
2021/12/05 18:29:09;;;;;;;0.47;0.40;;;7.70;63.60;;;;;;4953610;28;20201;-62
2021/12/05 18:31:36;;;;;;;1.63;0.50;;;7.60;64.00;;;;;;4971884;28;20908;-65
2021/12/05 18:34:09;;;;;;;0.52;0.45;;;7.70;63.90;;;;;;4965239;28;20199;-67
2021/12/05 18:36:38;;;;;;;0.38;0.30;;;7.80;63.10;;;;;;4974521;28;20191;-66
2021/12/05 18:39:10;;;;;;;0.50;0.50;;;7.60;64.60;;;;;;4976379;28;20659;-66
2021/12/05 18:41:37;;;;;;;0.50;0.50;;;7.60;64.10;;;;;;4975602;28;20188;-70
2021/12/05 18:44:08;;;;;;;0.88;0.60;;;7.50;63.80;;;;;;4976593;28;20195;-68
2021/12/05 18:46:34;;;;;;;0.50;0.50;;;7.60;63.50;;;;;;4975960;28;20195;-65
2021/12/05 18:49:00;;;;;;;0.65;0.65;;;7.60;63.30;;;;;;4975935;28;20254;-69
2021/12/05 18:51:26;;;;;;;0.30;0.30;;;7.60;63.90;;;;;;4962800;28;20267;-69
2021/12/05 18:53:52;;;;;;;0.80;0.55;;;7.60;63.20;;;;;;4975946;28;20172;-63
2021/12/05 18:56:18;;;;;;;0.57;0.47;;;7.50;63.50;;;;;;4976491;28;20605;-65
2021/12/05 18:58:44;;;;;;;0.50;0.50;;;7.60;63.30;;;;;;4975980;28;20196;-68
2021/12/05 19:06:50;;;;;;;0.45;0.40;;;7.50;63.80;;;;;;4976119;28;20196;-70
2021/12/05 19:14:17;;;;;;;0.43;0.43;;;7.60;63.30;;;;;;4975829;28;20253;-71
2021/12/05 19:16:43;;;;;;;0.35;0.30;;;7.60;62.50;;;;;;4976051;28;20191;-75
2021/12/05 19:19:10;;;;;;;0.85;0.50;;;7.60;62.80;;;;;;4975186;28;20196;-67
2021/12/05 19:21:37;;;;;;;0.50;0.43;;;7.50;62.80;;;;;;4975712;28;20191;-64